Time;durP1;ratioP1;P1;durP2;ratioP2;P2;SDS_P1;SDS_P2;PMS_P1;PMS_P2;Temp;Humidity;BMP_temperature;BMP_pressure;BME280_temperature;BME280_humidity;BME280_pressure;Samples;Min_cycle;Max_cycle;Signal;HPM_P1;HPM_P2
2024/03/11 00:02:11;;;;;;;3.50;2.30;;;;;;;8.80;83.41;95733.22;109029;1273;22513;-72
2024/03/11 00:04:45;;;;;;;2.50;1.60;;;;;;;8.79;83.33;95733.17;109072;1273;23842;-72
2024/03/11 00:07:16;;;;;;;2.20;2.00;;;;;;;8.88;83.54;95722.78;109062;1273;22526;-73
2024/03/11 00:09:50;;;;;;;2.80;2.20;;;;;;;9.06;83.42;95723.08;109052;1273;22766;-73
2024/03/11 00:12:29;;;;;;;3.70;2.50;;;;;;;9.05;82.90;95727.44;109066;1269;22519;-72
2024/03/11 00:15:11;;;;;;;3.60;2.80;;;;;;;9.02;82.87;95725.75;109040;1273;22475;-72
2024/03/11 00:17:43;;;;;;;4.00;2.50;;;;;;;9.01;82.75;95734.70;109044;1263;22501;-72
2024/03/11 00:20:17;;;;;;;3.10;2.10;;;;;;;8.97;82.77;95730.41;109077;1273;22528;-73
2024/03/11 00:22:48;;;;;;;3.30;2.20;;;;;;;9.00;82.83;95725.61;109010;1267;23552;-72
2024/03/11 00:25:22;;;;;;;2.90;2.40;;;;;;;9.05;82.73;95725.16;109076;1273;22518;-72
2024/03/11 00:27:53;;;;;;;2.40;2.20;;;;;;;9.09;82.71;95724.67;109092;1273;22521;-72
2024/03/11 00:30:24;;;;;;;3.30;2.30;;;;;;;9.08;82.54;95729.02;109064;1270;22625;-73
2024/03/11 00:32:59;;;;;;;4.70;2.90;;;;;;;9.14;82.53;95732.16;109085;1273;25063;-72
2024/03/11 00:35:30;;;;;;;3.60;2.70;;;;;;;9.12;82.37;95726.92;109070;1272;22483;-73
2024/03/11 00:38:07;;;;;;;4.20;2.60;;;;;;;9.08;82.29;95728.61;109064;1273;24334;-73
2024/03/11 00:40:40;;;;;;;3.00;2.40;;;;;;;9.04;82.26;95732.70;109087;1254;25300;-73
2024/03/11 00:43:11;;;;;;;4.00;3.00;;;;;;;9.00;82.37;95731.37;109017;1273;22544;-72
2024/03/11 00:45:42;;;;;;;6.10;3.10;;;;;;;8.97;82.36;95730.48;109066;1267;25287;-73
2024/03/11 00:48:16;;;;;;;3.60;2.80;;;;;;;8.94;82.40;95734.11;109104;1270;22529;-72
2024/03/11 00:50:47;;;;;;;5.50;3.10;;;;;;;8.91;82.57;95732.67;109079;1273;22508;-72
2024/03/11 00:53:18;;;;;;;3.40;2.90;;;;;;;8.89;82.52;95741.44;109077;1273;25288;-73
2024/03/11 00:55:50;;;;;;;3.10;2.30;;;;;;;8.87;82.59;95734.02;109092;1273;25383;-72
2024/03/11 00:58:23;;;;;;;3.50;2.90;;;;;;;8.86;82.70;95727.84;109089;1273;22515;-72
2024/03/11 01:01:02;;;;;;;4.60;3.50;;;;;;;8.84;82.80;95733.36;109076;1261;24183;-72
2024/03/11 01:03:33;;;;;;;3.50;2.60;;;;;;;8.81;82.83;95723.90;109107;1251;23191;-73
2024/03/11 01:06:09;;;;;;;2.80;2.50;;;;;;;8.76;82.80;95726.26;109135;1273;23001;-72
2024/03/11 01:08:40;;;;;;;2.90;2.10;;;;;;;8.72;82.92;95725.62;109073;1273;22511;-72
2024/03/11 01:11:14;;;;;;;4.00;2.90;;;;;;;8.73;83.08;95723.71;109068;1264;25430;-72
2024/03/11 01:13:46;;;;;;;3.40;2.40;;;;;;;8.76;83.28;95714.05;109096;1273;25236;-73
2024/03/11 01:16:18;;;;;;;2.70;2.30;;;;;;;8.76;83.28;95724.61;109078;1273;25456;-72
2024/03/11 01:18:53;;;;;;;3.50;2.50;;;;;;;8.71;83.18;95726.64;109100;1273;22510;-73
2024/03/11 01:21:27;;;;;;;4.50;2.70;;;;;;;8.67;83.58;95728.18;109007;1270;22542;-72
2024/03/11 01:23:58;;;;;;;3.50;2.60;;;;;;;8.72;84.29;95726.21;109056;1273;24164;-72
2024/03/11 01:26:29;;;;;;;3.80;2.60;;;;;;;8.73;84.38;95718.91;109060;1273;22563;-73
2024/03/11 01:29:10;;;;;;;4.20;2.40;;;;;;;8.70;84.45;95715.33;109044;1273;22480;-73
2024/03/11 01:31:45;;;;;;;3.90;2.40;;;;;;;8.77;84.63;95721.33;109074;1273;22540;-72
2024/03/11 01:34:15;;;;;;;4.70;2.50;;;;;;;8.74;84.56;95712.17;109073;1270;22547;-72
2024/03/11 01:36:47;;;;;;;4.60;3.00;;;;;;;8.67;84.75;95717.88;109085;1273;22518;-73
2024/03/11 01:39:26;;;;;;;3.50;2.70;;;;;;;8.64;84.78;95714.23;109068;1269;23686;-72
2024/03/11 01:42:03;;;;;;;5.40;3.50;;;;;;;8.64;84.99;95716.23;109044;1265;22535;-73
2024/03/11 01:44:35;;;;;;;3.50;2.70;;;;;;;8.63;85.14;95711.08;109073;1273;22886;-73
2024/03/11 01:47:09;;;;;;;5.60;2.90;;;;;;;8.62;85.28;95707.60;109058;1273;22514;-73
2024/03/11 01:49:44;;;;;;;5.90;3.10;;;;;;;8.62;85.66;95701.52;109098;1266;22542;-73
2024/03/11 01:52:18;;;;;;;3.70;2.80;;;;;;;8.63;85.71;95703.73;109068;1273;23239;-73
2024/03/11 01:54:51;;;;;;;3.70;2.70;;;;;;;8.61;85.82;95688.77;109072;1273;22455;-73
2024/03/11 01:57:27;;;;;;;4.50;2.80;;;;;;;8.58;86.04;95689.52;109074;1273;22469;-73
2024/03/11 02:00:08;;;;;;;4.50;2.40;;;;;;;8.57;86.08;95688.37;109053;1273;22550;-73
2024/03/11 02:02:39;;;;;;;4.60;3.10;;;;;;;8.61;86.21;95690.77;109050;1273;24651;-73
2024/03/11 02:05:14;;;;;;;5.00;3.30;;;;;;;8.66;86.23;95689.20;109089;1265;22459;-73
2024/03/11 02:07:48;;;;;;;7.40;3.30;;;;;;;8.68;86.17;95681.52;109033;1265;22469;-73
2024/03/11 02:10:21;;;;;;;4.60;3.00;;;;;;;8.70;86.13;95678.19;109038;1266;22527;-73
2024/03/11 02:12:52;;;;;;;5.30;3.20;;;;;;;8.69;86.05;95680.59;109097;1272;22685;-73
2024/03/11 02:15:24;;;;;;;3.20;2.70;;;;;;;8.67;85.99;95677.30;109121;1272;22527;-73
2024/03/11 02:17:55;;;;;;;6.30;3.50;;;;;;;8.64;85.98;95674.18;109085;1266;22513;-73
2024/03/11 02:20:27;;;;;;;5.80;3.80;;;;;;;8.62;86.19;95680.77;109079;1266;22521;-73
2024/03/11 02:22:59;;;;;;;5.50;3.20;;;;;;;8.66;86.25;95676.48;109100;1266;22527;-73
2024/03/11 02:25:31;;;;;;;4.60;2.90;;;;;;;8.63;86.49;95671.29;109065;1266;22554;-73
2024/03/11 02:28:08;;;;;;;5.80;3.70;;;;;;;8.61;86.61;95671.54;109037;1272;22525;-72
2024/03/11 02:30:39;;;;;;;5.20;3.30;;;;;;;8.60;86.49;95669.91;109102;1273;22529;-74
2024/03/11 02:33:12;;;;;;;6.00;4.00;;;;;;;8.57;86.61;95669.88;109041;1262;24203;-73
2024/03/11 02:35:43;;;;;;;6.90;4.90;;;;;;;8.55;86.41;95675.73;109062;1266;22475;-73
2024/03/11 02:38:14;;;;;;;4.50;3.40;;;;;;;8.55;86.49;95673.83;109080;1267;23397;-73
2024/03/11 02:40:45;;;;;;;6.30;4.60;;;;;;;8.57;86.49;95670.46;109076;1273;22560;-73
2024/03/11 02:43:20;;;;;;;7.20;3.60;;;;;;;8.57;86.51;95667.29;109102;1273;22520;-73
2024/03/11 02:45:51;;;;;;;5.00;3.40;;;;;;;8.56;86.50;95666.84;109039;1267;22576;-73
2024/03/11 02:48:23;;;;;;;4.60;3.20;;;;;;;8.53;86.49;95662.23;109062;1266;22652;-73
2024/03/11 02:50:55;;;;;;;3.80;2.90;;;;;;;8.52;86.35;95661.16;109104;1273;24205;-73
2024/03/11 02:53:30;;;;;;;4.40;3.30;;;;;;;8.49;86.39;95661.84;109086;1266;22517;-73
2024/03/11 02:56:07;;;;;;;6.10;3.80;;;;;;;8.48;86.44;95667.02;109072;1266;22558;-73
2024/03/11 02:58:39;;;;;;;8.70;4.40;;;;;;;8.47;86.44;95672.91;109107;1266;24218;-73
2024/03/11 03:01:12;;;;;;;6.70;3.40;;;;;;;8.44;86.46;95675.69;109092;1266;22519;-73
2024/03/11 03:03:43;;;;;;;4.90;3.20;;;;;;;8.46;86.55;95675.99;109075;1266;22520;-73
2024/03/11 03:06:17;;;;;;;4.80;3.50;;;;;;;8.41;86.31;95671.86;109075;1265;22531;-73
2024/03/11 03:08:50;;;;;;;5.20;3.50;;;;;;;8.38;86.49;95663.80;109078;1265;24048;-73
2024/03/11 03:11:23;;;;;;;5.80;3.80;;;;;;;8.33;86.34;95655.61;109068;1266;26264;-73
2024/03/11 03:14:06;;;;;;;4.70;3.40;;;;;;;8.29;86.62;95655.90;109096;1266;22507;-73
2024/03/11 03:16:40;;;;;;;5.40;3.50;;;;;;;8.33;86.82;95649.64;109093;1273;22524;-73
2024/03/11 03:19:11;;;;;;;6.10;3.90;;;;;;;8.36;86.79;95646.56;109066;1273;22489;-73
2024/03/11 03:21:42;;;;;;;6.00;4.10;;;;;;;8.36;86.85;95645.98;109088;1265;22629;-73
2024/03/11 03:24:13;;;;;;;4.40;3.70;;;;;;;8.36;86.87;95646.93;109075;1273;25414;-73
2024/03/11 03:26:43;;;;;;;5.70;4.30;;;;;;;8.37;86.88;95646.33;109085;1270;23770;-73
2024/03/11 03:29:15;;;;;;;7.10;4.60;;;;;;;8.40;87.03;95646.27;109098;1269;22521;-73
2024/03/11 03:31:51;;;;;;;8.10;4.50;;;;;;;8.42;87.05;95644.30;109121;1273;22519;-73
2024/03/11 03:34:24;;;;;;;8.10;4.70;;;;;;;8.43;86.99;95641.79;109097;1273;23009;-73
2024/03/11 03:36:59;;;;;;;7.00;4.30;;;;;;;8.42;87.12;95642.23;109098;1273;22515;-73
2024/03/11 03:39:37;;;;;;;5.70;3.90;;;;;;;8.39;87.00;95632.50;109088;1273;22521;-73
2024/03/11 03:42:10;;;;;;;7.80;4.40;;;;;;;8.36;87.09;95627.70;109035;1269;22551;-73
2024/03/11 03:44:41;;;;;;;7.10;4.70;;;;;;;8.34;87.10;95623.40;109111;1266;22633;-72
2024/03/11 03:47:12;;;;;;;6.50;4.50;;;;;;;8.37;87.36;95619.86;109076;1270;22525;-73
2024/03/11 03:49:44;;;;;;;9.00;4.90;;;;;;;8.40;87.45;95621.17;109075;1266;22623;-73
2024/03/11 03:52:17;;;;;;;7.40;5.00;;;;;;;8.43;87.51;95627.20;109039;1273;22535;-73
2024/03/11 03:54:49;;;;;;;8.20;4.80;;;;;;;8.44;87.47;95622.86;109080;1273;23101;-73
2024/03/11 03:57:20;;;;;;;6.70;4.60;;;;;;;8.45;87.43;95627.73;109073;1270;22550;-74
2024/03/11 03:59:52;;;;;;;9.00;4.50;;;;;;;8.44;87.52;95621.42;109061;1273;22466;-73
2024/03/11 04:02:28;;;;;;;8.20;4.80;;;;;;;8.45;87.46;95620.90;109070;1266;22511;-73
2024/03/11 04:05:05;;;;;;;8.40;5.10;;;;;;;8.42;87.46;95618.03;109076;1266;25281;-73
2024/03/11 04:07:40;;;;;;;6.90;4.30;;;;;;;8.41;87.41;95615.00;109088;1266;22511;-73
2024/03/11 04:10:17;;;;;;;7.30;4.00;;;;;;;8.41;87.54;95613.04;109052;1273;23142;-73
2024/03/11 04:12:49;;;;;;;6.60;4.10;;;;;;;8.41;87.51;95615.84;109059;1265;22648;-73
2024/03/11 04:15:24;;;;;;;6.80;4.90;;;;;;;8.40;87.64;95623.93;109096;1273;22539;-73
2024/03/11 04:17:55;;;;;;;7.30;6.00;;;;;;;8.41;87.62;95626.77;109059;1270;25352;-73
2024/03/11 04:20:32;;;;;;;6.70;4.70;;;;;;;8.39;87.54;95630.29;109082;1269;22452;-73
2024/03/11 04:23:07;;;;;;;6.20;4.80;;;;;;;8.36;87.62;95629.07;109069;1265;22552;-73
2024/03/11 04:25:42;;;;;;;8.60;5.40;;;;;;;8.39;87.90;95627.91;109110;1273;22521;-73
2024/03/11 04:28:13;;;;;;;7.00;5.10;;;;;;;8.45;87.99;95624.48;109064;1265;22571;-73
2024/03/11 04:30:45;;;;;;;7.90;4.80;;;;;;;8.50;88.06;95624.31;109075;1273;22514;-73
2024/03/11 04:33:22;;;;;;;7.40;4.50;;;;;;;8.59;88.03;95627.23;109032;1273;22615;-73
2024/03/11 04:35:53;;;;;;;8.40;5.10;;;;;;;8.61;87.90;95633.16;109106;1273;22542;-73
2024/03/11 04:38:26;;;;;;;6.30;4.00;;;;;;;8.63;87.88;95634.67;109051;1266;25220;-73
2024/03/11 04:40:57;;;;;;;6.70;4.80;;;;;;;8.65;87.93;95639.70;109061;1269;22524;-73
2024/03/11 04:43:30;;;;;;;9.00;5.10;;;;;;;8.64;87.85;95636.61;109047;1266;22515;-73
2024/03/11 04:46:01;;;;;;;6.40;4.50;;;;;;;8.62;87.80;95633.85;109090;1273;22580;-73
2024/03/11 04:48:33;;;;;;;7.80;4.50;;;;;;;8.61;87.82;95640.09;109054;1269;24247;-73
2024/03/11 04:51:07;;;;;;;6.40;5.00;;;;;;;8.62;87.87;95641.50;109081;1269;22555;-73
2024/03/11 04:53:40;;;;;;;6.40;4.70;;;;;;;8.62;87.85;95643.02;109041;1271;22531;-73
2024/03/11 04:56:16;;;;;;;5.60;4.40;;;;;;;8.62;87.87;95647.69;109094;1273;22484;-73
2024/03/11 04:58:52;;;;;;;9.10;5.00;;;;;;;8.62;88.09;95638.70;109053;1273;22534;-74
2024/03/11 05:01:26;;;;;;;6.70;5.20;;;;;;;8.72;88.11;95632.15;109082;1250;23606;-73
2024/03/11 05:04:01;;;;;;;8.90;6.70;;;;;;;8.82;88.11;95637.61;109072;1269;22525;-73
2024/03/11 05:06:42;;;;;;;11.40;6.50;;;;;;;8.90;87.95;95637.75;109056;1273;22643;-73
2024/03/11 05:09:15;;;;;;;8.10;5.30;;;;;;;8.94;87.62;95631.60;109082;1267;22536;-73
2024/03/11 05:11:51;;;;;;;9.80;6.10;;;;;;;8.91;87.37;95630.08;109051;1273;24829;-73
2024/03/11 05:14:22;;;;;;;8.70;6.60;;;;;;;8.88;87.35;95628.88;109059;1266;22517;-73
2024/03/11 05:16:56;;;;;;;10.00;6.10;;;;;;;8.87;87.47;95631.84;109070;1262;22477;-73
2024/03/11 05:19:30;;;;;;;7.80;6.30;;;;;;;8.87;87.54;95626.98;109059;1273;22507;-73
2024/03/11 05:22:03;;;;;;;8.70;6.10;;;;;;;8.86;87.58;95626.13;109090;1273;22565;-73
2024/03/11 05:24:34;;;;;;;16.20;6.70;;;;;;;8.84;87.65;95625.41;109064;1272;22520;-73
2024/03/11 05:27:06;;;;;;;9.80;6.70;;;;;;;8.85;87.67;95625.88;109038;1270;22517;-73
2024/03/11 05:29:37;;;;;;;10.90;6.70;;;;;;;8.85;87.67;95623.09;109106;1273;24204;-73
2024/03/11 05:32:11;;;;;;;9.00;6.00;;;;;;;8.85;87.66;95627.15;109050;1269;22632;-73
2024/03/11 05:34:42;;;;;;;9.50;6.30;;;;;;;8.84;87.73;95628.77;109034;1250;22475;-73
2024/03/11 05:37:18;;;;;;;8.40;5.70;;;;;;;8.86;87.78;95622.80;109066;1266;22511;-73
2024/03/11 05:39:49;;;;;;;8.30;5.60;;;;;;;8.88;87.88;95619.60;109050;1272;25237;-73
2024/03/11 05:42:20;;;;;;;7.10;5.80;;;;;;;8.90;87.89;95618.46;109075;1266;24222;-73
2024/03/11 05:44:51;;;;;;;10.20;6.20;;;;;;;8.89;88.00;95612.84;109081;1273;22541;-73
2024/03/11 05:47:25;;;;;;;9.60;7.00;;;;;;;8.87;88.11;95611.43;109067;1266;25281;-73
2024/03/11 05:49:57;;;;;;;9.80;6.70;;;;;;;8.87;88.27;95614.92;109068;1269;22532;-73
2024/03/11 05:52:33;;;;;;;8.80;6.00;;;;;;;8.88;88.39;95627.38;109083;1266;22520;-73
2024/03/11 05:55:11;;;;;;;9.10;6.10;;;;;;;8.90;88.17;95633.80;109087;1266;22598;-73
2024/03/11 05:57:48;;;;;;;8.30;6.60;;;;;;;8.89;88.22;95638.40;109019;1273;22845;-73
2024/03/11 06:00:31;;;;;;;9.00;6.00;;;;;;;8.88;88.15;95647.36;109081;1272;22525;-73
2024/03/11 06:03:05;;;;;;;7.70;6.20;;;;;;;8.84;88.04;95652.55;109027;1273;22985;-73
2024/03/11 06:05:36;;;;;;;9.00;5.40;;;;;;;8.82;88.31;95654.70;109055;1273;22614;-74
2024/03/11 06:08:08;;;;;;;9.50;5.70;;;;;;;8.85;88.51;95650.14;109047;1272;22526;-73
2024/03/11 06:10:41;;;;;;;8.20;6.30;;;;;;;8.87;88.68;95647.48;109113;1273;24260;-73
2024/03/11 06:13:15;;;;;;;9.50;6.70;;;;;;;8.95;88.82;95654.01;109008;1273;23699;-73
2024/03/11 06:15:48;;;;;;;10.40;7.20;;;;;;;8.98;88.83;95659.55;109076;1269;22597;-73
2024/03/11 06:18:21;;;;;;;10.40;6.20;;;;;;;8.98;88.71;95660.30;109050;1273;24379;-73
2024/03/11 06:20:54;;;;;;;9.30;6.00;;;;;;;9.01;88.66;95659.35;109076;1251;22530;-73
2024/03/11 06:23:27;;;;;;;12.60;7.90;;;;;;;9.04;88.64;95661.69;109031;1266;22565;-73
2024/03/11 06:25:59;;;;;;;11.10;7.30;;;;;;;9.06;88.81;95665.86;109120;1266;22559;-73
2024/03/11 06:28:31;;;;;;;10.80;7.10;;;;;;;9.11;88.92;95666.35;109060;1273;22534;-73
2024/03/11 06:31:06;;;;;;;9.10;6.00;;;;;;;9.17;88.94;95668.48;109042;1273;22514;-73
2024/03/11 06:33:40;;;;;;;10.50;5.90;;;;;;;9.23;89.05;95668.15;109052;1273;22660;-73
2024/03/11 06:36:16;;;;;;;7.80;6.30;;;;;;;9.31;89.05;95670.77;109034;1273;22511;-73
2024/03/11 06:38:53;;;;;;;9.20;7.20;;;;;;;9.37;89.08;95672.13;109108;1273;22586;-73
2024/03/11 06:41:27;;;;;;;11.10;6.70;;;;;;;9.44;89.04;95672.47;109014;1273;22527;-73
2024/03/11 06:44:01;;;;;;;10.70;5.60;;;;;;;9.51;88.97;95676.52;109043;1266;22518;-73
2024/03/11 06:46:32;;;;;;;8.60;5.70;;;;;;;9.61;88.98;95680.74;109108;1266;22869;-73
2024/03/11 06:49:05;;;;;;;10.10;6.60;;;;;;;9.69;89.00;95684.70;109053;1269;22501;-73
2024/03/11 06:51:41;;;;;;;8.50;6.10;;;;;;;9.77;88.88;95682.92;109033;1273;23731;-73
2024/03/11 06:54:15;;;;;;;11.60;7.40;;;;;;;9.80;88.54;95688.61;109090;1273;25455;-73
2024/03/11 06:56:46;;;;;;;12.20;7.40;;;;;;;9.82;88.45;95690.38;109056;1272;22532;-73
2024/03/11 06:59:17;;;;;;;12.50;6.90;;;;;;;9.85;88.50;95690.58;109048;1270;22520;-73
2024/03/11 07:01:50;;;;;;;8.70;6.40;;;;;;;9.90;88.54;95690.06;109026;1273;22477;-73
2024/03/11 07:04:23;;;;;;;9.20;5.60;;;;;;;9.97;88.55;95694.25;109065;1266;22575;-73
2024/03/11 07:07:01;;;;;;;9.90;5.90;;;;;;;10.07;88.51;95692.41;109119;1273;24161;-73
2024/03/11 07:09:36;;;;;;;10.30;6.40;;;;;;;10.16;88.34;95696.84;109089;1273;24283;-73
2024/03/11 07:12:11;;;;;;;10.10;6.80;;;;;;;10.30;88.57;95696.50;109065;1273;22552;-73
2024/03/11 07:14:44;;;;;;;12.10;7.00;;;;;;;10.56;88.88;95697.30;109065;1266;22588;-73
2024/03/11 07:17:15;;;;;;;11.90;7.50;;;;;;;10.90;89.00;95699.59;109088;1273;22546;-73
2024/03/11 07:19:49;;;;;;;9.60;5.40;;;;;;;11.34;88.98;95702.95;109078;1273;22601;-73
2024/03/11 07:22:20;;;;;;;10.60;5.80;;;;;;;11.85;88.85;95705.34;109045;1273;22957;-73
2024/03/11 07:24:52;;;;;;;9.00;5.80;;;;;;;12.35;88.33;95706.74;109088;1266;25945;-73
2024/03/11 07:27:25;;;;;;;7.80;5.60;;;;;;;12.84;87.89;95701.19;109097;1273;24208;-73
2024/03/11 07:29:59;;;;;;;9.70;5.90;;;;;;;13.51;87.61;95696.02;109071;1265;22529;-73
2024/03/11 07:32:31;;;;;;;7.40;5.20;;;;;;;14.17;86.70;95693.91;109060;1270;22515;-73
2024/03/11 07:35:03;;;;;;;9.60;6.00;;;;;;;14.46;85.18;95700.11;109063;1251;22531;-73
2024/03/11 07:37:40;;;;;;;9.50;6.10;;;;;;;14.30;83.50;95711.94;109021;1273;25233;-73
2024/03/11 07:40:12;;;;;;;8.90;5.30;;;;;;;14.12;83.14;95716.80;109107;1273;22647;-73
2024/03/11 07:42:43;;;;;;;10.60;5.80;;;;;;;14.10;82.96;95721.15;109020;1273;35726;-73
2024/03/11 07:45:15;;;;;;;11.20;6.80;;;;;;;13.99;82.33;95722.61;109084;1266;22458;-73
2024/03/11 07:47:46;;;;;;;10.00;6.70;;;;;;;13.72;81.67;95725.70;109080;1273;22631;-73
2024/03/11 07:50:19;;;;;;;15.80;10.50;;;;;;;13.57;81.07;95730.58;109055;1266;22571;-73
2024/03/11 07:52:51;;;;;;;15.40;9.30;;;;;;;12.92;80.11;95733.23;109035;1266;22511;-73
2024/03/11 07:55:28;;;;;;;10.70;7.90;;;;;;;12.33;80.02;95738.54;109068;1273;22615;-73
2024/03/11 07:58:06;;;;;;;10.40;7.30;;;;;;;11.87;80.61;95737.03;109048;1266;22568;-73
2024/03/11 08:00:42;;;;;;;12.60;8.30;;;;;;;11.67;81.39;95737.13;109041;1273;23129;-73
2024/03/11 08:03:14;;;;;;;13.30;8.60;;;;;;;11.49;81.56;95735.73;109061;1273;22525;-73
2024/03/11 08:05:47;;;;;;;10.80;7.30;;;;;;;11.27;81.78;95738.79;109074;1273;22536;-73
2024/03/11 08:08:24;;;;;;;11.60;7.70;;;;;;;11.14;82.27;95739.33;109060;1273;22662;-73
2024/03/11 08:10:57;;;;;;;11.00;8.50;;;;;;;11.03;82.75;95748.66;109041;1269;22504;-73
2024/03/11 08:13:30;;;;;;;12.30;8.40;;;;;;;11.00;83.23;95757.60;109060;1266;24250;-73
2024/03/11 08:16:05;;;;;;;10.20;7.20;;;;;;;10.93;83.42;95758.91;109097;1266;22734;-73
2024/03/11 08:18:36;;;;;;;11.60;8.20;;;;;;;10.92;83.62;95758.09;109058;1273;24241;-73
2024/03/11 08:21:10;;;;;;;14.90;8.50;;;;;;;10.87;83.97;95758.91;109065;1270;22455;-73
2024/03/11 08:23:43;;;;;;;11.80;8.30;;;;;;;10.87;84.43;95764.96;109037;1266;24927;-73
2024/03/11 08:26:17;;;;;;;14.30;9.10;;;;;;;10.83;84.43;95765.88;109062;1267;22522;-74
2024/03/11 08:28:50;;;;;;;11.30;7.30;;;;;;;10.78;84.54;95767.86;109037;1265;25414;-73
2024/03/11 08:31:28;;;;;;;10.80;7.40;;;;;;;10.74;84.65;95771.83;109093;1266;22646;-74
2024/03/11 08:34:02;;;;;;;14.90;9.20;;;;;;;10.72;84.75;95773.79;109047;1270;22479;-73
2024/03/11 08:36:35;;;;;;;16.40;9.70;;;;;;;10.67;84.92;95774.60;109017;1250;22528;-73
2024/03/11 08:39:12;;;;;;;13.50;8.10;;;;;;;10.66;85.05;95778.17;109061;1273;22508;-73
2024/03/11 08:41:43;;;;;;;12.10;7.30;;;;;;;10.66;85.24;95782.36;109059;1266;22511;-73
2024/03/11 08:44:14;;;;;;;10.10;6.40;;;;;;;10.67;85.34;95788.53;109094;1273;22683;-73
2024/03/11 08:46:48;;;;;;;9.90;6.70;;;;;;;10.66;85.42;95786.38;109097;1269;22523;-73
2024/03/11 08:49:23;;;;;;;11.20;7.00;;;;;;;10.68;85.50;95790.54;109083;1272;22552;-73
2024/03/11 08:51:58;;;;;;;9.50;6.00;;;;;;;10.70;85.75;95786.10;109058;1269;22507;-73
2024/03/11 08:54:32;;;;;;;9.30;6.70;;;;;;;10.76;85.85;95782.91;109045;1273;22537;-73
2024/03/11 08:57:04;;;;;;;11.10;7.20;;;;;;;10.81;86.00;95785.39;109132;1273;22457;-73
2024/03/11 08:59:36;;;;;;;9.80;6.70;;;;;;;10.88;85.96;95784.23;109071;1273;23902;-73
2024/03/11 09:02:09;;;;;;;10.80;5.90;;;;;;;10.98;86.32;95785.91;109048;1273;53305;-74
2024/03/11 09:04:41;;;;;;;10.90;7.30;;;;;;;11.14;86.33;95787.34;109074;1270;22514;-74
2024/03/11 09:07:15;;;;;;;10.80;7.10;;;;;;;11.20;86.17;95789.05;109080;1273;22548;-73
2024/03/11 09:09:47;;;;;;;10.10;7.10;;;;;;;11.27;86.41;95790.11;109081;1273;23736;-73
2024/03/11 09:12:18;;;;;;;10.90;7.50;;;;;;;11.42;86.71;95788.05;109036;1273;22512;-73
2024/03/11 09:14:54;;;;;;;10.30;6.30;;;;;;;11.52;86.20;95793.03;109046;1273;22469;-73
2024/03/11 09:17:28;;;;;;;11.00;6.00;;;;;;;11.55;86.03;95793.19;109063;1273;22474;-73
2024/03/11 09:19:59;;;;;;;11.10;6.80;;;;;;;11.62;86.09;95794.45;109110;1273;22520;-73
2024/03/11 09:22:34;;;;;;;11.30;7.30;;;;;;;11.65;85.87;95796.77;109020;1273;22524;-73
2024/03/11 09:25:11;;;;;;;11.10;7.40;;;;;;;11.69;86.04;95794.39;109128;1271;24267;-73
2024/03/11 09:27:44;;;;;;;12.80;8.00;;;;;;;11.77;86.02;95790.08;109059;1272;22912;-73
2024/03/11 09:30:17;;;;;;;10.90;6.80;;;;;;;11.82;85.90;95787.36;109021;1273;22540;-73
2024/03/11 09:32:49;;;;;;;9.80;6.80;;;;;;;11.90;85.90;95788.27;109034;1273;25008;-73
2024/03/11 09:35:20;;;;;;;9.10;6.30;;;;;;;12.02;86.10;95787.13;109052;1266;22568;-73
2024/03/11 09:37:52;;;;;;;10.30;6.80;;;;;;;12.11;85.95;95786.98;109076;1272;23739;-73
2024/03/11 09:40:27;;;;;;;10.10;7.40;;;;;;;12.11;85.42;95787.06;109041;1266;22609;-73
2024/03/11 09:43:11;;;;;;;11.00;7.30;;;;;;;12.06;85.23;95786.85;109021;1273;22512;-73
2024/03/11 09:45:47;;;;;;;10.70;7.60;;;;;;;12.07;85.37;95787.36;109061;1273;22647;-73
2024/03/11 09:48:23;;;;;;;12.70;8.40;;;;;;;12.10;85.63;95788.73;109111;1269;22619;-73
2024/03/11 09:50:58;;;;;;;8.70;6.40;;;;;;;12.11;85.52;95785.69;109078;1273;22627;-73
2024/03/11 09:53:32;;;;;;;13.20;7.60;;;;;;;12.11;85.53;95788.73;109053;1273;23577;-73
2024/03/11 09:56:09;;;;;;;11.00;7.10;;;;;;;12.10;85.55;95789.86;109050;1273;22593;-73
2024/03/11 09:58:45;;;;;;;11.40;6.90;;;;;;;12.05;85.37;95785.64;109042;1270;23126;-73
2024/03/11 10:01:17;;;;;;;10.60;7.50;;;;;;;12.01;85.54;95785.04;109042;1273;22529;-74
2024/03/11 10:03:48;;;;;;;11.00;8.00;;;;;;;12.02;85.95;95785.57;109027;1273;22596;-73
2024/03/11 10:06:20;;;;;;;10.20;6.70;;;;;;;12.06;86.15;95789.67;109060;1262;22514;-73
2024/03/11 10:08:54;;;;;;;10.00;7.60;;;;;;;12.08;86.10;95792.20;109080;1273;22521;-73
2024/03/11 10:11:28;;;;;;;10.10;6.80;;;;;;;12.10;86.12;95791.19;109051;1273;25257;-73
2024/03/11 10:14:22;;;;;;;10.30;7.30;;;;;;;12.14;86.18;95789.62;109061;1273;22511;-73
2024/03/11 10:16:55;;;;;;;13.40;8.20;;;;;;;12.17;86.24;95793.88;109086;1272;22531;-73
2024/03/11 10:19:30;;;;;;;13.60;7.80;;;;;;;12.19;86.39;95796.38;109060;1269;22545;-73
2024/03/11 10:22:09;;;;;;;11.40;7.70;;;;;;;12.23;86.65;95796.16;109115;1273;25898;-73
2024/03/11 10:24:43;;;;;;;15.10;8.50;;;;;;;12.25;86.66;95794.46;109045;1273;22520;-73
2024/03/11 10:27:23;;;;;;;9.60;7.60;;;;;;;12.29;86.79;95796.04;109088;1273;22652;-73
2024/03/11 10:29:55;;;;;;;10.30;6.50;;;;;;;12.38;86.87;95797.02;109064;1273;22515;-73
2024/03/11 10:32:42;;;;;;;10.90;7.40;;;;;;;12.44;86.84;95799.17;109053;1273;22545;-74
2024/03/11 10:35:20;;;;;;;10.70;8.20;;;;;;;12.59;87.03;95800.30;109031;1272;22545;-73
2024/03/11 10:38:07;;;;;;;10.10;8.30;;;;;;;12.72;87.00;95797.48;109071;1273;22493;-73
2024/03/11 10:40:50;;;;;;;12.60;8.50;;;;;;;12.87;87.06;95797.23;109081;1273;22604;-73
2024/03/11 10:43:25;;;;;;;10.90;8.30;;;;;;;12.99;86.96;95796.77;109003;1267;23937;-73
2024/03/11 10:46:20;;;;;;;13.10;7.80;;;;;;;13.08;86.62;95797.02;109054;1273;22565;-73
2024/03/11 10:48:56;;;;;;;11.70;8.20;;;;;;;13.14;86.20;95797.73;109049;1273;22726;-73
2024/03/11 10:51:34;;;;;;;11.40;8.00;;;;;;;13.23;86.18;95798.98;109082;1269;25258;-74
2024/03/11 10:54:06;;;;;;;12.50;8.70;;;;;;;13.24;85.82;95798.12;109033;1273;25339;-73
2024/03/11 10:56:40;;;;;;;12.40;8.80;;;;;;;13.26;85.80;95797.61;109061;1273;22541;-73
2024/03/11 10:59:15;;;;;;;14.30;9.30;;;;;;;13.25;85.70;95796.73;109070;1273;25421;-73
2024/03/11 11:01:58;;;;;;;13.90;9.00;;;;;;;13.22;85.46;95797.57;109079;1273;22544;-74
2024/03/11 11:04:33;;;;;;;11.80;8.10;;;;;;;13.15;85.28;95796.27;109046;1268;25449;-73
2024/03/11 11:07:08;;;;;;;9.60;7.90;;;;;;;13.07;85.24;95793.64;109070;1273;22507;-73
2024/03/11 11:09:49;;;;;;;12.10;8.30;;;;;;;12.98;85.14;95796.59;109084;1272;23871;-73
2024/03/11 11:12:23;;;;;;;15.20;9.20;;;;;;;12.87;85.10;95798.90;109033;1273;22521;-73
2024/03/11 11:14:58;;;;;;;12.40;9.30;;;;;;;12.80;85.22;95794.73;109068;1273;22521;-73
2024/03/11 11:17:37;;;;;;;12.40;9.60;;;;;;;12.75;85.18;95792.28;109055;1271;22549;-73
2024/03/11 11:20:30;;;;;;;19.60;10.40;;;;;;;12.67;85.13;95788.95;109078;1273;22611;-73
2024/03/11 11:23:10;;;;;;;11.80;9.00;;;;;;;12.63;85.35;95792.57;109049;1269;22554;-73
2024/03/11 11:25:44;;;;;;;11.50;8.80;;;;;;;12.60;85.47;95791.53;109098;1273;22542;-73
2024/03/11 11:28:26;;;;;;;13.20;8.90;;;;;;;12.61;85.70;95788.59;108958;1273;135342;-73
2024/03/11 11:31:13;;;;;;;11.20;9.70;;;;;;;12.61;85.67;95784.34;109048;1273;22628;-73
2024/03/11 11:33:56;;;;;;;15.80;10.40;;;;;;;12.60;85.87;95788.03;109110;1273;22569;-73
2024/03/11 11:37:02;;;;;;;14.10;9.50;;;;;;;12.58;85.84;95789.66;109108;1272;22538;-73
2024/03/11 11:39:34;;;;;;;11.40;9.20;;;;;;;12.51;85.88;95784.88;109083;1273;22467;-73
2024/03/11 11:42:31;;;;;;;11.90;8.80;;;;;;;12.47;86.08;95782.06;109075;1273;22540;-73
2024/03/11 11:45:06;;;;;;;11.20;8.10;;;;;;;12.45;86.32;95783.57;109075;1273;22585;-73
2024/03/11 11:47:40;;;;;;;12.60;7.40;;;;;;;12.47;86.56;95782.72;109096;1272;23868;-73
2024/03/11 11:50:36;;;;;;;14.40;9.10;;;;;;;12.49;86.71;95783.73;109069;1273;22521;-73
2024/03/11 11:53:07;;;;;;;13.80;9.30;;;;;;;12.53;86.88;95785.38;109030;1273;22501;-73
2024/03/11 11:55:50;;;;;;;13.60;9.30;;;;;;;12.54;86.85;95783.02;109068;1266;25227;-73
2024/03/11 11:58:21;;;;;;;14.70;10.90;;;;;;;12.54;86.86;95784.09;109093;1266;25482;-73
2024/03/11 12:01:00;;;;;;;15.20;11.10;;;;;;;12.54;86.98;95785.57;109040;1273;22523;-73